sensor_id;sensor_type;location;lat;lon;timestamp;P1;durP1;ratioP1;P2;durP2;ratioP2
76157;SDS011;64907;51.574;6.502;2023-06-26T00:02:18;7.93;;;7.22;;
76157;SDS011;64907;51.574;6.502;2023-06-26T00:04:43;7.53;;;6.95;;
76157;SDS011;64907;51.574;6.502;2023-06-26T00:07:08;8.05;;;7.25;;
76157;SDS011;64907;51.574;6.502;2023-06-26T00:09:34;7.88;;;7.28;;
76157;SDS011;64907;51.574;6.502;2023-06-26T00:11:59;7.40;;;6.90;;
76157;SDS011;64907;51.574;6.502;2023-06-26T00:14:24;8.03;;;7.30;;
76157;SDS011;64907;51.574;6.502;2023-06-26T00:16:50;7.72;;;7.18;;
76157;SDS011;64907;51.574;6.502;2023-06-26T00:19:15;8.53;;;7.73;;
76157;SDS011;64907;51.574;6.502;2023-06-26T00:21:42;8.00;;;7.30;;
76157;SDS011;64907;51.574;6.502;2023-06-26T00:24:13;9.75;;;7.78;;
76157;SDS011;64907;51.574;6.502;2023-06-26T00:26:38;8.63;;;7.97;;
76157;SDS011;64907;51.574;6.502;2023-06-26T00:29:03;8.23;;;7.47;;
76157;SDS011;64907;51.574;6.502;2023-06-26T00:31:30;8.60;;;7.95;;
76157;SDS011;64907;51.574;6.502;2023-06-26T00:33:56;8.10;;;7.25;;
76157;SDS011;64907;51.574;6.502;2023-06-26T00:36:21;8.10;;;7.40;;
76157;SDS011;64907;51.574;6.502;2023-06-26T00:38:48;8.30;;;7.68;;
76157;SDS011;64907;51.574;6.502;2023-06-26T00:41:13;9.32;;;7.20;;
76157;SDS011;64907;51.574;6.502;2023-06-26T00:43:38;8.10;;;7.40;;
76157;SDS011;64907;51.574;6.502;2023-06-26T00:46:04;8.35;;;7.75;;
76157;SDS011;64907;51.574;6.502;2023-06-26T00:48:29;8.30;;;7.60;;
76157;SDS011;64907;51.574;6.502;2023-06-26T00:50:55;7.88;;;7.28;;
76157;SDS011;64907;51.574;6.502;2023-06-26T00:53:20;7.90;;;7.38;;
76157;SDS011;64907;51.574;6.502;2023-06-26T00:55:47;7.32;;;6.80;;
76157;SDS011;64907;51.574;6.502;2023-06-26T00:58:12;7.90;;;7.30;;
76157;SDS011;64907;51.574;6.502;2023-06-26T01:00:37;8.35;;;7.75;;
76157;SDS011;64907;51.574;6.502;2023-06-26T01:03:03;8.55;;;7.75;;
76157;SDS011;64907;51.574;6.502;2023-06-26T01:05:28;7.87;;;7.17;;
76157;SDS011;64907;51.574;6.502;2023-06-26T01:07:54;7.93;;;7.38;;
76157;SDS011;64907;51.574;6.502;2023-06-26T01:10:19;9.18;;;8.40;;
76157;SDS011;64907;51.574;6.502;2023-06-26T01:12:45;8.02;;;7.38;;
76157;SDS011;64907;51.574;6.502;2023-06-26T01:15:10;8.43;;;7.78;;
76157;SDS011;64907;51.574;6.502;2023-06-26T01:17:37;8.40;;;7.60;;
76157;SDS011;64907;51.574;6.502;2023-06-26T01:20:03;8.07;;;7.55;;
76157;SDS011;64907;51.574;6.502;2023-06-26T01:25:18;7.72;;;7.13;;
76157;SDS011;64907;51.574;6.502;2023-06-26T01:27:46;7.70;;;7.20;;
76157;SDS011;64907;51.574;6.502;2023-06-26T01:32:43;8.18;;;7.50;;
76157;SDS011;64907;51.574;6.502;2023-06-26T01:35:09;8.80;;;8.15;;
76157;SDS011;64907;51.574;6.502;2023-06-26T01:37:34;10.38;;;8.02;;
76157;SDS011;64907;51.574;6.502;2023-06-26T01:40:00;8.43;;;7.72;;
76157;SDS011;64907;51.574;6.502;2023-06-26T01:42:25;8.07;;;7.53;;
76157;SDS011;64907;51.574;6.502;2023-06-26T01:44:50;8.88;;;8.25;;
76157;SDS011;64907;51.574;6.502;2023-06-26T01:47:19;8.60;;;7.80;;
76157;SDS011;64907;51.574;6.502;2023-06-26T01:49:49;8.43;;;7.72;;
76157;SDS011;64907;51.574;6.502;2023-06-26T01:52:19;8.30;;;7.43;;
76157;SDS011;64907;51.574;6.502;2023-06-26T01:57:39;8.90;;;8.20;;
76157;SDS011;64907;51.574;6.502;2023-06-26T02:00:04;8.55;;;7.95;;
76157;SDS011;64907;51.574;6.502;2023-06-26T02:02:31;10.38;;;9.35;;
76157;SDS011;64907;51.574;6.502;2023-06-26T02:04:56;9.23;;;8.52;;
76157;SDS011;64907;51.574;6.502;2023-06-26T02:07:23;8.98;;;8.38;;
76157;SDS011;64907;51.574;6.502;2023-06-26T02:09:48;9.68;;;8.65;;
76157;SDS011;64907;51.574;6.502;2023-06-26T02:12:15;9.80;;;9.03;;
76157;SDS011;64907;51.574;6.502;2023-06-26T02:14:40;9.80;;;9.00;;
76157;SDS011;64907;51.574;6.502;2023-06-26T02:17:07;10.57;;;8.90;;
76157;SDS011;64907;51.574;6.502;2023-06-26T02:19:33;9.98;;;9.18;;
76157;SDS011;64907;51.574;6.502;2023-06-26T02:21:58;9.85;;;8.95;;
76157;SDS011;64907;51.574;6.502;2023-06-26T02:24:24;9.90;;;9.18;;
76157;SDS011;64907;51.574;6.502;2023-06-26T02:26:49;10.53;;;9.73;;
76157;SDS011;64907;51.574;6.502;2023-06-26T02:29:15;10.83;;;9.97;;
76157;SDS011;64907;51.574;6.502;2023-06-26T02:31:40;10.13;;;9.38;;
76157;SDS011;64907;51.574;6.502;2023-06-26T02:34:06;12.20;;;10.00;;
76157;SDS011;64907;51.574;6.502;2023-06-26T02:39:01;11.13;;;9.68;;
76157;SDS011;64907;51.574;6.502;2023-06-26T02:41:26;10.60;;;9.70;;
76157;SDS011;64907;51.574;6.502;2023-06-26T02:43:54;12.40;;;11.43;;
76157;SDS011;64907;51.574;6.502;2023-06-26T02:46:19;11.55;;;10.43;;
76157;SDS011;64907;51.574;6.502;2023-06-26T02:48:53;12.83;;;10.47;;
76157;SDS011;64907;51.574;6.502;2023-06-26T02:51:18;11.13;;;10.23;;
76157;SDS011;64907;51.574;6.502;2023-06-26T02:53:43;12.03;;;10.83;;
76157;SDS011;64907;51.574;6.502;2023-06-26T02:56:08;12.20;;;11.20;;
76157;SDS011;64907;51.574;6.502;2023-06-26T02:58:40;11.57;;;10.38;;
76157;SDS011;64907;51.574;6.502;2023-06-26T03:01:06;12.88;;;11.70;;
76157;SDS011;64907;51.574;6.502;2023-06-26T03:03:32;13.32;;;10.90;;
76157;SDS011;64907;51.574;6.502;2023-06-26T03:06:05;12.95;;;11.80;;
76157;SDS011;64907;51.574;6.502;2023-06-26T03:08:30;12.83;;;11.50;;
76157;SDS011;64907;51.574;6.502;2023-06-26T03:11:01;15.38;;;11.77;;
76157;SDS011;64907;51.574;6.502;2023-06-26T03:13:26;13.73;;;12.43;;
76157;SDS011;64907;51.574;6.502;2023-06-26T03:15:52;14.40;;;12.75;;
76157;SDS011;64907;51.574;6.502;2023-06-26T03:18:17;14.20;;;11.83;;
76157;SDS011;64907;51.574;6.502;2023-06-26T03:20:50;13.13;;;11.97;;
76157;SDS011;64907;51.574;6.502;2023-06-26T03:23:15;11.73;;;10.55;;
76157;SDS011;64907;51.574;6.502;2023-06-26T03:25:40;11.70;;;10.67;;
76157;SDS011;64907;51.574;6.502;2023-06-26T03:28:07;13.80;;;11.18;;
76157;SDS011;64907;51.574;6.502;2023-06-26T03:30:32;11.65;;;10.45;;
76157;SDS011;64907;51.574;6.502;2023-06-26T03:35:27;11.45;;;10.45;;
76157;SDS011;64907;51.574;6.502;2023-06-26T03:37:52;11.63;;;9.98;;
76157;SDS011;64907;51.574;6.502;2023-06-26T03:40:18;11.98;;;9.60;;
76157;SDS011;64907;51.574;6.502;2023-06-26T03:42:43;10.30;;;9.40;;
76157;SDS011;64907;51.574;6.502;2023-06-26T03:45:08;10.57;;;9.57;;
76157;SDS011;64907;51.574;6.502;2023-06-26T03:50:02;9.43;;;8.68;;
76157;SDS011;64907;51.574;6.502;2023-06-26T03:52:28;10.20;;;9.30;;
76157;SDS011;64907;51.574;6.502;2023-06-26T03:54:55;10.38;;;9.07;;
76157;SDS011;64907;51.574;6.502;2023-06-26T03:57:20;9.53;;;8.47;;
76157;SDS011;64907;51.574;6.502;2023-06-26T03:59:46;9.65;;;8.10;;
76157;SDS011;64907;51.574;6.502;2023-06-26T04:02:11;8.68;;;8.07;;
76157;SDS011;64907;51.574;6.502;2023-06-26T04:04:43;8.45;;;7.65;;
76157;SDS011;64907;51.574;6.502;2023-06-26T04:09:39;10.30;;;7.97;;
76157;SDS011;64907;51.574;6.502;2023-06-26T04:12:04;10.97;;;7.93;;
76157;SDS011;64907;51.574;6.502;2023-06-26T04:14:29;12.52;;;7.85;;
76157;SDS011;64907;51.574;6.502;2023-06-26T04:16:54;11.52;;;7.78;;
76157;SDS011;64907;51.574;6.502;2023-06-26T04:19:20;11.52;;;7.95;;
76157;SDS011;64907;51.574;6.502;2023-06-26T04:21:45;7.30;;;6.67;;
76157;SDS011;64907;51.574;6.502;2023-06-26T04:24:10;7.07;;;6.43;;
76157;SDS011;64907;51.574;6.502;2023-06-26T04:26:35;7.97;;;6.70;;
76157;SDS011;64907;51.574;6.502;2023-06-26T04:29:00;13.43;;;6.60;;
76157;SDS011;64907;51.574;6.502;2023-06-26T04:31:26;11.65;;;6.75;;
76157;SDS011;64907;51.574;6.502;2023-06-26T04:33:51;8.88;;;7.22;;
76157;SDS011;64907;51.574;6.502;2023-06-26T04:36:19;9.70;;;7.22;;
76157;SDS011;64907;51.574;6.502;2023-06-26T04:38:44;7.72;;;7.03;;
76157;SDS011;64907;51.574;6.502;2023-06-26T04:41:10;9.30;;;6.47;;
76157;SDS011;64907;51.574;6.502;2023-06-26T04:43:37;11.32;;;7.05;;
76157;SDS011;64907;51.574;6.502;2023-06-26T04:51:23;12.70;;;5.72;;
76157;SDS011;64907;51.574;6.502;2023-06-26T04:53:51;11.43;;;6.65;;
76157;SDS011;64907;51.574;6.502;2023-06-26T04:56:18;8.90;;;5.80;;
76157;SDS011;64907;51.574;6.502;2023-06-26T04:58:46;6.40;;;5.45;;
76157;SDS011;64907;51.574;6.502;2023-06-26T05:03:56;6.60;;;5.90;;
76157;SDS011;64907;51.574;6.502;2023-06-26T05:06:22;7.38;;;5.88;;
76157;SDS011;64907;51.574;6.502;2023-06-26T05:08:47;6.97;;;6.30;;
76157;SDS011;64907;51.574;6.502;2023-06-26T05:11:18;6.28;;;5.68;;
76157;SDS011;64907;51.574;6.502;2023-06-26T05:13:44;6.03;;;5.53;;
76157;SDS011;64907;51.574;6.502;2023-06-26T05:16:17;6.65;;;5.55;;
76157;SDS011;64907;51.574;6.502;2023-06-26T05:18:42;13.43;;;7.03;;
76157;SDS011;64907;51.574;6.502;2023-06-26T05:21:08;7.10;;;6.25;;
76157;SDS011;64907;51.574;6.502;2023-06-26T05:23:34;9.77;;;6.72;;
76157;SDS011;64907;51.574;6.502;2023-06-26T05:26:02;6.95;;;6.35;;
76157;SDS011;64907;51.574;6.502;2023-06-26T05:28:28;8.98;;;5.55;;
76157;SDS011;64907;51.574;6.502;2023-06-26T05:30:53;9.60;;;6.95;;
76157;SDS011;64907;51.574;6.502;2023-06-26T05:33:19;12.68;;;6.10;;
76157;SDS011;64907;51.574;6.502;2023-06-26T05:35:46;6.78;;;6.10;;
76157;SDS011;64907;51.574;6.502;2023-06-26T05:38:13;10.40;;;6.50;;
76157;SDS011;64907;51.574;6.502;2023-06-26T05:40:38;13.57;;;7.32;;
76157;SDS011;64907;51.574;6.502;2023-06-26T05:43:05;9.90;;;7.05;;
76157;SDS011;64907;51.574;6.502;2023-06-26T05:45:30;12.25;;;6.20;;
76157;SDS011;64907;51.574;6.502;2023-06-26T05:47:55;11.43;;;7.10;;
76157;SDS011;64907;51.574;6.502;2023-06-26T05:50:21;13.60;;;7.03;;
76157;SDS011;64907;51.574;6.502;2023-06-26T05:52:46;9.43;;;6.68;;
76157;SDS011;64907;51.574;6.502;2023-06-26T05:55:11;12.02;;;6.80;;
76157;SDS011;64907;51.574;6.502;2023-06-26T05:57:38;9.20;;;6.47;;
76157;SDS011;64907;51.574;6.502;2023-06-26T06:00:05;15.43;;;7.18;;
76157;SDS011;64907;51.574;6.502;2023-06-26T06:02:37;9.38;;;6.80;;
76157;SDS011;64907;51.574;6.502;2023-06-26T06:05:02;12.73;;;7.75;;
76157;SDS011;64907;51.574;6.502;2023-06-26T06:07:29;13.88;;;6.90;;
76157;SDS011;64907;51.574;6.502;2023-06-26T06:09:54;7.93;;;6.30;;
76157;SDS011;64907;51.574;6.502;2023-06-26T06:12:19;13.67;;;7.33;;
76157;SDS011;64907;51.574;6.502;2023-06-26T06:14:44;9.00;;;6.57;;
76157;SDS011;64907;51.574;6.502;2023-06-26T06:17:09;14.75;;;7.43;;
76157;SDS011;64907;51.574;6.502;2023-06-26T06:19:35;16.37;;;6.93;;
76157;SDS011;64907;51.574;6.502;2023-06-26T06:22:06;14.73;;;7.40;;
76157;SDS011;64907;51.574;6.502;2023-06-26T06:24:31;13.52;;;6.82;;
76157;SDS011;64907;51.574;6.502;2023-06-26T06:26:56;13.75;;;7.82;;
76157;SDS011;64907;51.574;6.502;2023-06-26T06:29:22;12.40;;;7.00;;
76157;SDS011;64907;51.574;6.502;2023-06-26T06:31:50;17.30;;;7.73;;
76157;SDS011;64907;51.574;6.502;2023-06-26T06:34:17;10.65;;;6.22;;
76157;SDS011;64907;51.574;6.502;2023-06-26T06:36:42;13.00;;;7.03;;
76157;SDS011;64907;51.574;6.502;2023-06-26T06:39:07;17.38;;;7.38;;
76157;SDS011;64907;51.574;6.502;2023-06-26T06:44:03;10.85;;;6.93;;
76157;SDS011;64907;51.574;6.502;2023-06-26T06:46:29;16.20;;;7.63;;
76157;SDS011;64907;51.574;6.502;2023-06-26T06:48:54;14.20;;;6.97;;
76157;SDS011;64907;51.574;6.502;2023-06-26T06:54:18;15.07;;;7.15;;
76157;SDS011;64907;51.574;6.502;2023-06-26T06:56:44;11.13;;;6.13;;
76157;SDS011;64907;51.574;6.502;2023-06-26T06:59:19;11.35;;;6.65;;
76157;SDS011;64907;51.574;6.502;2023-06-26T07:04:26;16.55;;;6.45;;
76157;SDS011;64907;51.574;6.502;2023-06-26T07:06:52;14.02;;;6.80;;
76157;SDS011;64907;51.574;6.502;2023-06-26T07:09:18;10.87;;;6.67;;
76157;SDS011;64907;51.574;6.502;2023-06-26T07:11:45;12.02;;;6.85;;
76157;SDS011;64907;51.574;6.502;2023-06-26T07:14:11;12.10;;;6.07;;
76157;SDS011;64907;51.574;6.502;2023-06-26T07:16:36;14.30;;;6.50;;
76157;SDS011;64907;51.574;6.502;2023-06-26T07:19:01;11.20;;;5.68;;
76157;SDS011;64907;51.574;6.502;2023-06-26T07:21:26;10.68;;;6.35;;
76157;SDS011;64907;51.574;6.502;2023-06-26T07:23:52;11.63;;;6.20;;
76157;SDS011;64907;51.574;6.502;2023-06-26T07:26:17;8.77;;;5.03;;
76157;SDS011;64907;51.574;6.502;2023-06-26T07:28:44;8.17;;;5.10;;
76157;SDS011;64907;51.574;6.502;2023-06-26T07:31:09;13.88;;;6.57;;
76157;SDS011;64907;51.574;6.502;2023-06-26T07:33:34;11.35;;;6.85;;
76157;SDS011;64907;51.574;6.502;2023-06-26T07:36:00;11.60;;;5.87;;
76157;SDS011;64907;51.574;6.502;2023-06-26T07:38:26;13.52;;;5.90;;
76157;SDS011;64907;51.574;6.502;2023-06-26T07:40:51;12.10;;;6.07;;
76157;SDS011;64907;51.574;6.502;2023-06-26T07:43:16;10.77;;;5.18;;
76157;SDS011;64907;51.574;6.502;2023-06-26T07:45:42;9.87;;;5.23;;
76157;SDS011;64907;51.574;6.502;2023-06-26T07:48:08;11.63;;;5.28;;
76157;SDS011;64907;51.574;6.502;2023-06-26T07:50:34;12.63;;;6.40;;
76157;SDS011;64907;51.574;6.502;2023-06-26T07:52:59;9.17;;;5.40;;
76157;SDS011;64907;51.574;6.502;2023-06-26T07:55:26;8.57;;;5.70;;
76157;SDS011;64907;51.574;6.502;2023-06-26T07:57:52;10.90;;;5.10;;
76157;SDS011;64907;51.574;6.502;2023-06-26T08:00:17;10.88;;;5.28;;
76157;SDS011;64907;51.574;6.502;2023-06-26T08:02:50;11.88;;;5.47;;
76157;SDS011;64907;51.574;6.502;2023-06-26T08:05:15;6.82;;;4.70;;
76157;SDS011;64907;51.574;6.502;2023-06-26T08:07:47;10.95;;;5.28;;
76157;SDS011;64907;51.574;6.502;2023-06-26T08:10:12;9.18;;;5.15;;
76157;SDS011;64907;51.574;6.502;2023-06-26T08:12:37;7.63;;;4.97;;
76157;SDS011;64907;51.574;6.502;2023-06-26T08:15:06;10.70;;;4.55;;
76157;SDS011;64907;51.574;6.502;2023-06-26T08:17:31;10.18;;;4.32;;
76157;SDS011;64907;51.574;6.502;2023-06-26T08:19:58;7.30;;;4.23;;
76157;SDS011;64907;51.574;6.502;2023-06-26T08:22:24;6.35;;;4.10;;
76157;SDS011;64907;51.574;6.502;2023-06-26T08:27:18;11.80;;;5.45;;
76157;SDS011;64907;51.574;6.502;2023-06-26T08:29:43;9.88;;;5.88;;
76157;SDS011;64907;51.574;6.502;2023-06-26T08:32:11;9.90;;;4.80;;
76157;SDS011;64907;51.574;6.502;2023-06-26T08:39:42;15.52;;;5.05;;
76157;SDS011;64907;51.574;6.502;2023-06-26T08:42:07;6.60;;;4.60;;
76157;SDS011;64907;51.574;6.502;2023-06-26T08:44:32;10.38;;;5.28;;
76157;SDS011;64907;51.574;6.502;2023-06-26T08:46:59;7.72;;;5.00;;
76157;SDS011;64907;51.574;6.502;2023-06-26T08:49:37;12.45;;;4.95;;
76157;SDS011;64907;51.574;6.502;2023-06-26T08:52:13;10.57;;;4.88;;
76157;SDS011;64907;51.574;6.502;2023-06-26T08:57:11;5.57;;;3.63;;
76157;SDS011;64907;51.574;6.502;2023-06-26T08:59:37;5.78;;;3.50;;
76157;SDS011;64907;51.574;6.502;2023-06-26T09:02:03;5.40;;;3.47;;
76157;SDS011;64907;51.574;6.502;2023-06-26T09:04:28;6.80;;;4.07;;
76157;SDS011;64907;51.574;6.502;2023-06-26T09:09:30;5.53;;;3.80;;
76157;SDS011;64907;51.574;6.502;2023-06-26T09:11:56;6.80;;;3.85;;
76157;SDS011;64907;51.574;6.502;2023-06-26T09:14:23;5.63;;;4.07;;
76157;SDS011;64907;51.574;6.502;2023-06-26T09:16:48;4.68;;;4.22;;
76157;SDS011;64907;51.574;6.502;2023-06-26T09:19:14;5.40;;;4.03;;
76157;SDS011;64907;51.574;6.502;2023-06-26T09:24:16;4.80;;;4.20;;
76157;SDS011;64907;51.574;6.502;2023-06-26T09:26:41;5.03;;;4.03;;
76157;SDS011;64907;51.574;6.502;2023-06-26T09:29:06;5.32;;;3.97;;
76157;SDS011;64907;51.574;6.502;2023-06-26T09:31:38;9.38;;;4.03;;
76157;SDS011;64907;51.574;6.502;2023-06-26T09:34:04;5.70;;;3.72;;
76157;SDS011;64907;51.574;6.502;2023-06-26T09:36:31;5.88;;;4.45;;
76157;SDS011;64907;51.574;6.502;2023-06-26T09:39:02;6.97;;;4.32;;
76157;SDS011;64907;51.574;6.502;2023-06-26T09:41:29;6.22;;;4.18;;
76157;SDS011;64907;51.574;6.502;2023-06-26T09:46:27;5.90;;;3.63;;
76157;SDS011;64907;51.574;6.502;2023-06-26T09:49:03;7.47;;;4.18;;
76157;SDS011;64907;51.574;6.502;2023-06-26T09:51:32;4.25;;;3.85;;
76157;SDS011;64907;51.574;6.502;2023-06-26T09:53:59;6.80;;;3.90;;
76157;SDS011;64907;51.574;6.502;2023-06-26T09:56:27;4.40;;;3.85;;
76157;SDS011;64907;51.574;6.502;2023-06-26T09:58:59;7.40;;;3.80;;
76157;SDS011;64907;51.574;6.502;2023-06-26T10:01:27;7.60;;;4.10;;
76157;SDS011;64907;51.574;6.502;2023-06-26T10:03:56;4.63;;;3.80;;
76157;SDS011;64907;51.574;6.502;2023-06-26T10:06:27;4.35;;;3.47;;
76157;SDS011;64907;51.574;6.502;2023-06-26T10:08:53;5.30;;;2.70;;
76157;SDS011;64907;51.574;6.502;2023-06-26T10:11:19;9.70;;;2.60;;
76157;SDS011;64907;51.574;6.502;2023-06-26T10:13:46;3.50;;;2.63;;
76157;SDS011;64907;51.574;6.502;2023-06-26T10:16:18;2.72;;;2.55;;
76157;SDS011;64907;51.574;6.502;2023-06-26T10:18:44;2.70;;;2.50;;
76157;SDS011;64907;51.574;6.502;2023-06-26T10:21:10;4.32;;;2.30;;
76157;SDS011;64907;51.574;6.502;2023-06-26T10:23:36;2.80;;;2.22;;
76157;SDS011;64907;51.574;6.502;2023-06-26T10:26:03;2.60;;;2.40;;
76157;SDS011;64907;51.574;6.502;2023-06-26T10:28:29;11.90;;;2.80;;
76157;SDS011;64907;51.574;6.502;2023-06-26T10:30:56;1.70;;;1.70;;
76157;SDS011;64907;51.574;6.502;2023-06-26T10:33:24;3.28;;;1.83;;
76157;SDS011;64907;51.574;6.502;2023-06-26T10:38:18;3.78;;;2.08;;
76157;SDS011;64907;51.574;6.502;2023-06-26T10:40:46;3.97;;;2.00;;
76157;SDS011;64907;51.574;6.502;2023-06-26T10:43:16;1.85;;;1.75;;
76157;SDS011;64907;51.574;6.502;2023-06-26T10:45:44;2.10;;;1.90;;
76157;SDS011;64907;51.574;6.502;2023-06-26T10:48:14;1.88;;;1.77;;
76157;SDS011;64907;51.574;6.502;2023-06-26T11:01:26;3.42;;;1.70;;
76157;SDS011;64907;51.574;6.502;2023-06-26T11:04:00;2.72;;;2.28;;
76157;SDS011;64907;51.574;6.502;2023-06-26T11:06:28;1.98;;;1.60;;
76157;SDS011;64907;51.574;6.502;2023-06-26T11:08:59;7.75;;;1.83;;
76157;SDS011;64907;51.574;6.502;2023-06-26T11:14:14;8.48;;;1.90;;
76157;SDS011;64907;51.574;6.502;2023-06-26T11:16:41;3.55;;;1.40;;
76157;SDS011;64907;51.574;6.502;2023-06-26T11:19:07;7.68;;;2.15;;
76157;SDS011;64907;51.574;6.502;2023-06-26T11:21:32;3.63;;;1.88;;
76157;SDS011;64907;51.574;6.502;2023-06-26T11:23:58;2.28;;;1.77;;
76157;SDS011;64907;51.574;6.502;2023-06-26T11:26:25;1.85;;;1.38;;
76157;SDS011;64907;51.574;6.502;2023-06-26T11:28:56;4.50;;;1.50;;
76157;SDS011;64907;51.574;6.502;2023-06-26T11:31:28;1.58;;;1.48;;
76157;SDS011;64907;51.574;6.502;2023-06-26T11:39:02;3.60;;;1.48;;
76157;SDS011;64907;51.574;6.502;2023-06-26T11:41:29;2.85;;;1.85;;
76157;SDS011;64907;51.574;6.502;2023-06-26T11:44:18;1.60;;;1.50;;
76157;SDS011;64907;51.574;6.502;2023-06-26T11:46:46;2.42;;;1.45;;
76157;SDS011;64907;51.574;6.502;2023-06-26T11:49:15;1.63;;;1.20;;
76157;SDS011;64907;51.574;6.502;2023-06-26T11:51:53;3.47;;;1.60;;
76157;SDS011;64907;51.574;6.502;2023-06-26T11:59:53;5.82;;;1.48;;
76157;SDS011;64907;51.574;6.502;2023-06-26T12:04:50;3.15;;;1.83;;
76157;SDS011;64907;51.574;6.502;2023-06-26T12:07:16;3.92;;;1.65;;
76157;SDS011;64907;51.574;6.502;2023-06-26T12:09:50;2.05;;;1.30;;
76157;SDS011;64907;51.574;6.502;2023-06-26T12:17:15;3.88;;;1.73;;
76157;SDS011;64907;51.574;6.502;2023-06-26T12:19:44;2.47;;;1.20;;
76157;SDS011;64907;51.574;6.502;2023-06-26T12:24:46;3.63;;;1.27;;
76157;SDS011;64907;51.574;6.502;2023-06-26T12:29:54;3.08;;;1.35;;
76157;SDS011;64907;51.574;6.502;2023-06-26T12:32:22;1.40;;;1.25;;
76157;SDS011;64907;51.574;6.502;2023-06-26T12:34:48;1.42;;;1.33;;
76157;SDS011;64907;51.574;6.502;2023-06-26T12:37:21;4.35;;;1.23;;
76157;SDS011;64907;51.574;6.502;2023-06-26T12:39:49;1.45;;;1.38;;
76157;SDS011;64907;51.574;6.502;2023-06-26T12:44:45;2.78;;;1.42;;
76157;SDS011;64907;51.574;6.502;2023-06-26T12:47:13;1.10;;;1.10;;
76157;SDS011;64907;51.574;6.502;2023-06-26T12:52:15;3.33;;;1.40;;
76157;SDS011;64907;51.574;6.502;2023-06-26T12:54:41;1.50;;;1.40;;
76157;SDS011;64907;51.574;6.502;2023-06-26T12:57:06;3.97;;;1.40;;
76157;SDS011;64907;51.574;6.502;2023-06-26T12:59:38;2.80;;;1.30;;
76157;SDS011;64907;51.574;6.502;2023-06-26T13:04:37;1.48;;;1.30;;
76157;SDS011;64907;51.574;6.502;2023-06-26T13:12:06;5.28;;;1.30;;
76157;SDS011;64907;51.574;6.502;2023-06-26T13:14:31;4.15;;;1.48;;
76157;SDS011;64907;51.574;6.502;2023-06-26T13:16:57;1.35;;;1.00;;
76157;SDS011;64907;51.574;6.502;2023-06-26T13:21:58;4.82;;;2.00;;
76157;SDS011;64907;51.574;6.502;2023-06-26T13:24:23;2.70;;;1.17;;
76157;SDS011;64907;51.574;6.502;2023-06-26T13:26:48;1.30;;;1.20;;
76157;SDS011;64907;51.574;6.502;2023-06-26T13:29:13;1.50;;;1.30;;
76157;SDS011;64907;51.574;6.502;2023-06-26T13:31:40;2.08;;;1.52;;
76157;SDS011;64907;51.574;6.502;2023-06-26T13:34:05;7.43;;;1.63;;
76157;SDS011;64907;51.574;6.502;2023-06-26T13:36:30;1.50;;;1.40;;
76157;SDS011;64907;51.574;6.502;2023-06-26T13:39:01;3.08;;;1.40;;
76157;SDS011;64907;51.574;6.502;2023-06-26T13:41:27;2.33;;;1.50;;
76157;SDS011;64907;51.574;6.502;2023-06-26T13:46:35;4.55;;;1.58;;
76157;SDS011;64907;51.574;6.502;2023-06-26T13:49:00;4.43;;;1.50;;
76157;SDS011;64907;51.574;6.502;2023-06-26T13:51:31;1.73;;;1.53;;
76157;SDS011;64907;51.574;6.502;2023-06-26T13:56:29;2.15;;;1.10;;
76157;SDS011;64907;51.574;6.502;2023-06-26T13:58:56;1.85;;;1.75;;
76157;SDS011;64907;51.574;6.502;2023-06-26T14:04:00;2.15;;;1.38;;
76157;SDS011;64907;51.574;6.502;2023-06-26T14:06:26;1.67;;;1.58;;
76157;SDS011;64907;51.574;6.502;2023-06-26T14:08:52;3.20;;;1.50;;
76157;SDS011;64907;51.574;6.502;2023-06-26T14:11:18;1.38;;;1.33;;
76157;SDS011;64907;51.574;6.502;2023-06-26T14:13:43;5.87;;;1.80;;
76157;SDS011;64907;51.574;6.502;2023-06-26T14:16:08;1.97;;;1.60;;
76157;SDS011;64907;51.574;6.502;2023-06-26T14:18:33;5.10;;;1.43;;
76157;SDS011;64907;51.574;6.502;2023-06-26T14:20:59;2.58;;;2.15;;
76157;SDS011;64907;51.574;6.502;2023-06-26T14:23:26;6.53;;;2.20;;
76157;SDS011;64907;51.574;6.502;2023-06-26T14:25:51;2.17;;;1.73;;
76157;SDS011;64907;51.574;6.502;2023-06-26T14:28:18;4.43;;;1.83;;
76157;SDS011;64907;51.574;6.502;2023-06-26T14:30:43;4.45;;;1.85;;
76157;SDS011;64907;51.574;6.502;2023-06-26T14:33:08;3.17;;;1.67;;
76157;SDS011;64907;51.574;6.502;2023-06-26T14:35:34;4.57;;;1.60;;
76157;SDS011;64907;51.574;6.502;2023-06-26T14:38:00;3.58;;;1.80;;
76157;SDS011;64907;51.574;6.502;2023-06-26T14:40:25;1.50;;;1.47;;
76157;SDS011;64907;51.574;6.502;2023-06-26T14:45:32;2.40;;;1.70;;
76157;SDS011;64907;51.574;6.502;2023-06-26T14:47:57;4.97;;;1.88;;
76157;SDS011;64907;51.574;6.502;2023-06-26T14:50:23;6.03;;;1.63;;
76157;SDS011;64907;51.574;6.502;2023-06-26T14:55:20;1.65;;;1.30;;
76157;SDS011;64907;51.574;6.502;2023-06-26T14:57:55;1.40;;;1.30;;
76157;SDS011;64907;51.574;6.502;2023-06-26T15:00:20;2.35;;;1.30;;
76157;SDS011;64907;51.574;6.502;2023-06-26T15:02:46;1.88;;;1.33;;
76157;SDS011;64907;51.574;6.502;2023-06-26T15:05:13;1.40;;;1.35;;
76157;SDS011;64907;51.574;6.502;2023-06-26T15:07:41;3.80;;;1.30;;
76157;SDS011;64907;51.574;6.502;2023-06-26T15:12:36;3.72;;;1.40;;
76157;SDS011;64907;51.574;6.502;2023-06-26T15:15:01;3.28;;;1.42;;
76157;SDS011;64907;51.574;6.502;2023-06-26T15:17:27;0.98;;;0.93;;
76157;SDS011;64907;51.574;6.502;2023-06-26T15:19:52;1.90;;;1.47;;
76157;SDS011;64907;51.574;6.502;2023-06-26T15:22:17;2.20;;;1.33;;
76157;SDS011;64907;51.574;6.502;2023-06-26T15:24:43;1.30;;;1.20;;
76157;SDS011;64907;51.574;6.502;2023-06-26T15:27:11;1.65;;;1.30;;
76157;SDS011;64907;51.574;6.502;2023-06-26T15:29:38;5.43;;;1.60;;
76157;SDS011;64907;51.574;6.502;2023-06-26T15:32:18;8.13;;;1.50;;
76157;SDS011;64907;51.574;6.502;2023-06-26T15:37:15;3.50;;;1.60;;
76157;SDS011;64907;51.574;6.502;2023-06-26T15:39:47;2.50;;;1.35;;
76157;SDS011;64907;51.574;6.502;2023-06-26T15:42:19;1.75;;;1.15;;
76157;SDS011;64907;51.574;6.502;2023-06-26T15:44:51;1.35;;;1.25;;
76157;SDS011;64907;51.574;6.502;2023-06-26T15:47:16;2.60;;;1.60;;
76157;SDS011;64907;51.574;6.502;2023-06-26T15:49:42;1.55;;;1.48;;
76157;SDS011;64907;51.574;6.502;2023-06-26T15:54:41;2.70;;;1.50;;
76157;SDS011;64907;51.574;6.502;2023-06-26T15:57:07;2.33;;;1.13;;
76157;SDS011;64907;51.574;6.502;2023-06-26T15:59:35;1.50;;;1.30;;
76157;SDS011;64907;51.574;6.502;2023-06-26T16:02:01;2.35;;;1.20;;
76157;SDS011;64907;51.574;6.502;2023-06-26T16:04:27;3.78;;;1.13;;
76157;SDS011;64907;51.574;6.502;2023-06-26T16:14:24;3.53;;;1.35;;
76157;SDS011;64907;51.574;6.502;2023-06-26T16:16:49;2.88;;;1.52;;
76157;SDS011;64907;51.574;6.502;2023-06-26T16:19:15;1.57;;;1.40;;
76157;SDS011;64907;51.574;6.502;2023-06-26T16:21:41;1.73;;;1.30;;
76157;SDS011;64907;51.574;6.502;2023-06-26T16:24:06;1.48;;;1.17;;
76157;SDS011;64907;51.574;6.502;2023-06-26T16:31:35;1.75;;;1.55;;
76157;SDS011;64907;51.574;6.502;2023-06-26T16:36:37;1.50;;;1.40;;
76157;SDS011;64907;51.574;6.502;2023-06-26T16:39:02;1.33;;;1.23;;
76157;SDS011;64907;51.574;6.502;2023-06-26T16:41:29;2.00;;;1.10;;
76157;SDS011;64907;51.574;6.502;2023-06-26T16:43:56;1.27;;;1.10;;
76157;SDS011;64907;51.574;6.502;2023-06-26T16:54:16;2.05;;;1.52;;
76157;SDS011;64907;51.574;6.502;2023-06-26T16:56:45;1.27;;;1.10;;
76157;SDS011;64907;51.574;6.502;2023-06-26T17:04:17;1.27;;;1.17;;
76157;SDS011;64907;51.574;6.502;2023-06-26T17:06:42;2.58;;;1.73;;
76157;SDS011;64907;51.574;6.502;2023-06-26T17:09:12;4.78;;;1.50;;
76157;SDS011;64907;51.574;6.502;2023-06-26T17:14:13;1.92;;;1.20;;
76157;SDS011;64907;51.574;6.502;2023-06-26T17:16:38;1.27;;;1.10;;
76157;SDS011;64907;51.574;6.502;2023-06-26T17:21:33;2.05;;;1.20;;